createdAt,value
2018-06-08T00:01:43.801Z,96331.92
2018-06-08T00:07:03.481Z,96327.91
2018-06-08T00:09:30.733Z,96327.29
2018-06-08T00:11:58.054Z,96327.91
2018-06-08T00:14:25.328Z,96323.76
2018-06-08T00:16:52.632Z,96328.36
2018-06-08T00:19:19.979Z,96323.73
2018-06-08T00:21:47.237Z,96316.36
2018-06-08T00:24:14.612Z,96318.66
2018-06-08T00:26:41.925Z,96315.69
2018-06-08T00:29:09.200Z,96312.60
2018-06-08T00:31:36.535Z,96313.73
2018-06-08T00:34:03.842Z,96306.33
2018-06-08T00:36:31.168Z,96301.98
2018-06-08T00:38:58.533Z,96299.38
2018-06-08T00:41:25.852Z,96306.16
2018-06-08T00:43:53.098Z,96302.52
2018-06-08T00:46:20.453Z,96301.73
2018-06-08T00:48:47.703Z,96307.14
2018-06-08T00:51:15.046Z,96303.52
2018-06-08T00:53:42.373Z,96300.75
2018-06-08T00:56:19.800Z,96294.95
2018-06-08T00:58:47.146Z,96295.61
2018-06-08T01:01:14.376Z,96293.15
2018-06-08T01:03:41.617Z,96288.38
2018-06-08T01:06:08.940Z,96286.25
2018-06-08T01:08:36.234Z,96288.39
2018-06-08T01:11:03.547Z,96284.78
2018-06-08T01:13:30.853Z,96290.02
2018-06-08T01:15:58.191Z,96283.36
2018-06-08T01:18:25.396Z,96293.96
2018-06-08T01:20:52.633Z,96292.00
2018-06-08T01:23:25.792Z,96282.25
2018-06-08T01:25:53.162Z,96281.95
2018-06-08T01:28:20.491Z,96285.41
2018-06-08T01:30:47.825Z,96285.71
2018-06-08T01:33:15.143Z,96290.11
2018-06-08T01:35:42.445Z,96296.59
2018-06-08T01:38:09.774Z,96289.23
2018-06-08T01:40:37.067Z,96289.64
2018-06-08T01:43:04.293Z,96288.30
2018-06-08T01:45:31.634Z,96292.88
2018-06-08T01:47:58.955Z,96295.15
2018-06-08T01:50:26.239Z,96297.54
2018-06-08T01:52:53.578Z,96292.27
2018-06-08T01:55:20.901Z,96299.00
2018-06-08T01:57:48.192Z,96298.56
2018-06-08T02:00:15.503Z,96296.47
2018-06-08T02:02:42.859Z,96296.13
2018-06-08T02:05:10.218Z,96293.29
2018-06-08T02:07:37.543Z,96292.18
2018-06-08T02:10:05.025Z,96292.27
2018-06-08T02:12:32.333Z,96265.91
2018-06-08T02:14:59.739Z,96287.41
2018-06-08T02:17:27.008Z,96289.64
2018-06-08T02:19:54.365Z,96287.18
2018-06-08T02:22:21.626Z,96287.42
2018-06-08T02:24:48.905Z,96280.20
2018-06-08T02:27:16.164Z,96285.66
2018-06-08T02:29:43.402Z,96286.06
2018-06-08T02:32:10.680Z,96282.22
2018-06-08T02:34:37.932Z,96285.42
2018-06-08T02:37:05.225Z,96288.08
2018-06-08T02:39:32.419Z,96284.08
2018-06-08T02:41:59.666Z,96278.50
2018-06-08T02:44:26.951Z,96280.45
2018-06-08T02:46:54.208Z,96283.95
2018-06-08T02:49:21.547Z,96283.70
2018-06-08T02:51:48.846Z,96288.17
2018-06-08T02:54:16.108Z,96286.08
2018-06-08T02:56:44.941Z,96293.58
2018-06-08T02:59:12.345Z,96297.02
2018-06-08T03:01:39.654Z,96300.94
2018-06-08T03:04:06.936Z,96313.12
2018-06-08T03:06:34.228Z,96307.78
2018-06-08T03:09:01.533Z,96315.33
2018-06-08T03:11:28.808Z,96316.39
2018-06-08T03:13:56.169Z,96314.31
2018-06-08T03:16:23.360Z,96321.69
2018-06-08T03:18:50.636Z,96322.12
2018-06-08T03:21:17.909Z,96324.53
2018-06-08T03:23:45.210Z,96336.91
2018-06-08T03:26:12.572Z,96325.09
2018-06-08T03:29:44.081Z,96329.16
2018-06-08T03:32:11.373Z,96325.89
2018-06-08T03:34:38.642Z,96331.11
2018-06-08T03:37:05.903Z,96330.11
2018-06-08T03:39:33.194Z,96332.67
2018-06-08T03:42:00.492Z,96329.58
2018-06-08T03:44:27.767Z,96337.72
2018-06-08T03:46:55.019Z,96337.80
2018-06-08T03:49:22.375Z,96340.83
2018-06-08T03:51:49.781Z,96341.34
2018-06-08T03:54:17.076Z,96339.86
2018-06-08T03:56:47.456Z,96342.61
2018-06-08T03:59:15.286Z,96339.20
2018-06-08T04:01:42.517Z,96341.87
2018-06-08T04:04:09.820Z,96339.67
2018-06-08T04:06:37.056Z,96341.38
2018-06-08T04:09:06.455Z,96315.80
2018-06-08T04:11:33.751Z,96346.43
2018-06-08T04:14:01.045Z,96343.50
2018-06-08T04:16:28.290Z,96338.95
2018-06-08T04:18:55.526Z,96338.95
2018-06-08T04:21:22.824Z,96340.63
2018-06-08T04:23:50.137Z,96346.30
2018-06-08T04:26:17.439Z,96343.71
2018-06-08T04:28:44.687Z,96350.95
2018-06-08T04:31:11.993Z,96348.31
2018-06-08T04:33:39.345Z,96348.75
2018-06-08T04:36:06.518Z,96342.87
2018-06-08T04:38:33.830Z,96345.67
2018-06-08T04:41:01.052Z,96341.28
2018-06-08T04:43:28.362Z,96341.17
2018-06-08T04:45:55.628Z,96341.74
2018-06-08T04:48:22.928Z,96340.43
2018-06-08T04:50:50.265Z,96341.59
2018-06-08T04:53:17.558Z,96343.66
2018-06-08T04:55:44.826Z,96335.80
2018-06-08T04:58:12.003Z,96334.95
2018-06-08T05:00:39.274Z,96326.19
2018-06-08T05:03:06.588Z,96324.08
2018-06-08T05:05:33.868Z,96324.41
2018-06-08T05:08:01.158Z,96323.46
2018-06-08T05:13:21.184Z,96317.59
2018-06-08T05:15:48.529Z,96315.09
2018-06-08T05:18:16.004Z,96315.18
2018-06-08T05:20:43.461Z,96312.08
2018-06-08T05:23:10.799Z,96309.98
2018-06-08T05:25:38.043Z,96311.16
2018-06-08T05:28:05.296Z,96312.23
2018-06-08T05:30:32.491Z,96313.46
2018-06-08T05:32:59.732Z,96317.56
2018-06-08T05:35:27.174Z,96322.18
2018-06-08T05:37:54.510Z,96320.91
2018-06-08T05:40:21.735Z,96323.67
2018-06-08T05:42:48.967Z,96321.44
2018-06-08T05:45:16.252Z,96322.04
2018-06-08T05:47:43.513Z,96322.98
2018-06-08T05:52:16.644Z,96324.27
2018-06-08T05:54:43.943Z,96329.30
2018-06-08T05:57:11.291Z,96339.91
2018-06-08T06:00:02.816Z,96342.52
2018-06-08T06:02:30.047Z,96337.81
2018-06-08T06:04:57.373Z,96334.16
2018-06-08T06:07:24.667Z,96311.59
2018-06-08T06:09:51.914Z,96330.97
2018-06-08T06:12:19.184Z,96325.70
2018-06-08T06:14:48.484Z,96336.77
2018-06-08T06:17:15.859Z,96338.28
2018-06-08T06:19:43.488Z,96275.71
2018-06-08T06:22:10.771Z,96343.61
2018-06-08T06:24:38.037Z,96353.88
2018-06-08T06:27:05.343Z,96354.22
2018-06-08T06:29:32.580Z,96344.78
2018-06-08T06:31:59.906Z,96346.02
2018-06-08T06:34:27.203Z,96344.67
2018-06-08T06:36:54.475Z,96348.66
2018-06-08T06:39:21.761Z,96348.15
2018-06-08T06:41:48.995Z,96352.13
2018-06-08T06:44:16.240Z,96354.61
2018-06-08T06:46:43.453Z,96359.25
2018-06-08T06:49:10.771Z,96353.55
2018-06-08T06:51:38.107Z,96359.08
2018-06-08T06:54:05.350Z,96352.72
2018-06-08T06:56:32.607Z,96358.34
2018-06-08T06:58:59.801Z,96357.41
2018-06-08T07:01:27.011Z,96353.94
2018-06-08T07:03:54.254Z,96353.11
2018-06-08T07:06:21.532Z,96341.05
2018-06-08T07:08:48.741Z,96343.69
2018-06-08T07:11:16.029Z,96346.59
2018-06-08T07:13:43.320Z,96340.55
2018-06-08T07:16:10.601Z,96342.84
2018-06-08T07:18:37.938Z,96340.59
2018-06-08T07:21:05.216Z,96340.78
2018-06-08T07:23:32.532Z,96337.03
2018-06-08T07:25:59.740Z,96338.45
2018-06-08T07:28:27.027Z,96336.55
2018-06-08T07:30:54.260Z,96334.91
2018-06-08T07:33:21.508Z,96332.78
2018-06-08T07:35:48.812Z,96334.03
2018-06-08T07:38:16.088Z,96326.04
2018-06-08T07:40:43.384Z,96329.22
2018-06-08T07:43:10.660Z,96323.79
2018-06-08T07:45:37.838Z,96317.25
2018-06-08T07:48:05.910Z,96311.53
2018-06-08T07:50:33.247Z,96305.96
2018-06-08T07:53:00.572Z,96302.78
2018-06-08T07:55:27.867Z,96300.05
2018-06-08T07:57:55.155Z,96298.54
2018-06-08T08:00:22.426Z,96287.94
2018-06-08T08:02:49.674Z,96280.47
2018-06-08T08:05:16.971Z,96275.84
2018-06-08T08:07:44.236Z,96274.33
2018-06-08T08:10:11.560Z,96270.38
2018-06-08T08:12:38.783Z,96266.37
2018-06-08T08:15:06.064Z,96268.38
2018-06-08T08:17:33.340Z,96264.94
2018-06-08T08:20:00.622Z,96259.22
2018-06-08T08:22:27.877Z,96255.73
2018-06-08T08:24:55.165Z,96252.44
2018-06-08T08:27:22.438Z,96258.42
2018-06-08T08:29:49.711Z,96257.72
2018-06-08T08:32:16.966Z,96259.83
2018-06-08T08:34:44.258Z,96265.75
2018-06-08T08:37:11.550Z,96272.41
2018-06-08T08:39:38.853Z,96274.52
2018-06-08T08:42:06.128Z,96270.01
2018-06-08T08:44:33.390Z,96278.38
2018-06-08T08:47:00.707Z,96272.02
2018-06-08T08:49:28.038Z,96272.11
2018-06-08T08:51:55.357Z,96272.39
2018-06-08T08:54:22.745Z,96273.66
2018-06-08T08:56:50.040Z,96281.30
2018-06-08T08:59:17.279Z,96286.34
2018-06-08T09:01:44.496Z,96281.30
2018-06-08T09:04:11.800Z,96284.06
2018-06-08T09:06:39.091Z,96279.02
2018-06-08T09:09:06.515Z,96281.51
2018-06-08T09:11:33.812Z,96280.98
2018-06-08T09:14:01.116Z,96271.92
2018-06-08T09:16:28.327Z,96277.19
2018-06-08T09:18:55.623Z,96278.00
2018-06-08T09:21:22.898Z,96276.00
2018-06-08T09:23:50.209Z,96276.69
2018-06-08T09:26:17.673Z,96275.91
2018-06-08T09:28:44.962Z,96270.77
2018-06-08T09:31:12.202Z,96271.34
2018-06-08T09:33:39.594Z,96269.80
2018-06-08T09:36:06.958Z,96252.69
2018-06-08T09:38:34.267Z,96269.27
2018-06-08T09:41:01.522Z,96272.77
2018-06-08T09:43:28.865Z,96274.30
2018-06-08T09:45:56.214Z,96273.91
2018-06-08T09:48:23.495Z,96278.84
2018-06-08T09:50:50.860Z,96272.75
2018-06-08T09:53:18.178Z,96278.09
2018-06-08T09:55:45.481Z,96284.91
2018-06-08T09:58:12.760Z,96280.78
2018-06-08T10:00:41.170Z,96277.98
2018-06-08T10:03:08.662Z,96271.08
2018-06-08T10:05:35.966Z,96261.45
2018-06-08T10:08:03.266Z,96269.36
2018-06-08T10:10:30.591Z,96267.19
2018-06-08T10:12:57.815Z,96266.98
2018-06-08T10:15:25.141Z,96263.45
2018-06-08T10:17:52.416Z,96261.92
2018-06-08T10:20:19.742Z,96263.54
2018-06-08T10:22:47.020Z,96263.27
2018-06-08T10:25:14.360Z,96261.72
2018-06-08T10:27:41.704Z,96260.34
2018-06-08T10:30:08.980Z,96261.91
2018-06-08T10:32:36.204Z,96254.75
2018-06-08T10:35:03.513Z,96259.83
2018-06-08T10:37:30.879Z,96260.16
2018-06-08T10:39:58.141Z,96255.97
2018-06-08T10:42:25.499Z,96246.01
2018-06-08T10:44:52.908Z,96248.81
2018-06-08T10:47:20.234Z,96238.50
2018-06-08T10:49:47.487Z,96244.38
2018-06-08T10:52:14.706Z,96244.42
2018-06-08T10:54:41.962Z,96240.17
2018-06-08T10:57:09.244Z,96239.73
2018-06-08T10:59:36.507Z,96237.33
2018-06-08T11:02:03.875Z,96232.31
2018-06-08T11:04:31.162Z,96241.30
2018-06-08T11:06:58.458Z,96238.47
2018-06-08T11:09:25.802Z,96229.56
2018-06-08T11:11:53.154Z,96230.07
2018-06-08T11:14:20.494Z,96223.21
2018-06-08T11:16:47.832Z,96222.12
2018-06-08T11:19:15.132Z,96213.61
2018-06-08T11:21:42.409Z,96213.72
2018-06-08T11:24:09.811Z,96208.63
2018-06-08T11:26:37.247Z,96205.52
2018-06-08T11:29:04.513Z,96203.52
2018-06-08T11:31:31.790Z,96198.67
2018-06-08T11:33:59.103Z,96192.70
2018-06-08T11:36:26.366Z,96187.63
2018-06-08T11:38:53.661Z,96190.75
2018-06-08T11:41:20.932Z,96180.64
2018-06-08T11:43:48.173Z,96185.56
2018-06-08T11:46:15.456Z,96188.32
2018-06-08T11:48:43.009Z,96179.58
2018-06-08T11:51:10.276Z,96176.23
2018-06-08T11:53:37.628Z,96167.65
2018-06-08T11:56:05.031Z,96166.70
2018-06-08T11:58:32.263Z,96161.99
2018-06-08T12:00:59.604Z,96162.22
2018-06-08T12:03:26.916Z,96155.58
2018-06-08T12:05:54.249Z,96153.27
2018-06-08T12:08:21.533Z,96149.91
2018-06-08T12:10:48.843Z,96149.63
2018-06-08T12:13:16.174Z,96143.27
2018-06-08T12:15:43.551Z,96148.60
2018-06-08T12:18:10.759Z,96141.88
2018-06-08T12:20:38.048Z,96138.55
2018-06-08T12:23:05.319Z,96135.28
2018-06-08T12:25:32.590Z,96132.88
2018-06-08T12:27:59.911Z,96129.22
2018-06-08T12:30:27.219Z,96124.50
2018-06-08T12:32:54.529Z,96134.33
2018-06-08T12:35:21.823Z,96133.91
2018-06-08T12:37:49.190Z,96129.05
2018-06-08T12:40:16.414Z,96128.90
2018-06-08T12:42:43.767Z,96132.10
2018-06-08T12:45:11.051Z,96126.23
2018-06-08T12:47:38.408Z,96116.56
2018-06-08T12:50:05.748Z,96118.95
2018-06-08T12:52:33.151Z,96116.55
2018-06-08T12:55:00.472Z,96115.48
2018-06-08T12:57:27.850Z,96109.04
2018-06-08T12:59:55.155Z,96109.83
2018-06-08T13:02:22.618Z,96105.80
2018-06-08T13:04:49.899Z,96111.55
2018-06-08T13:07:17.160Z,96107.70
2018-06-08T13:09:44.576Z,96100.80
2018-06-08T13:12:11.939Z,96099.59
2018-06-08T13:14:39.239Z,96099.80
2018-06-08T13:17:06.739Z,96100.23
2018-06-08T13:19:33.988Z,96073.75
2018-06-08T13:22:01.280Z,96089.95
2018-06-08T13:24:28.591Z,96090.63
2018-06-08T13:26:55.920Z,96092.66
2018-06-08T13:29:23.249Z,96088.16
2018-06-08T13:31:50.557Z,96093.86
2018-06-08T13:34:18.039Z,96090.84
2018-06-08T13:36:45.371Z,96085.95
2018-06-08T13:39:12.724Z,96081.22
2018-06-08T13:41:40.256Z,96086.47
2018-06-08T13:44:07.557Z,96078.13
2018-06-08T13:46:42.169Z,96077.85
2018-06-08T13:49:10.189Z,96067.45
2018-06-08T13:51:37.694Z,96062.03
2018-06-08T13:54:05.076Z,96065.02
2018-06-08T13:56:32.395Z,96064.66
2018-06-08T13:58:59.746Z,96061.34
2018-06-08T14:01:27.082Z,96048.09
2018-06-08T14:03:54.973Z,96053.06
2018-06-08T14:06:22.281Z,96042.70
2018-06-08T14:08:49.612Z,96043.45
2018-06-08T14:11:16.950Z,96042.52
2018-06-08T14:13:44.348Z,96041.88
2018-06-08T14:16:11.629Z,96033.20
2018-06-08T14:18:38.857Z,96037.20
2018-06-08T14:21:06.263Z,96033.12
2018-06-08T14:23:33.532Z,96033.25
2018-06-08T14:28:53.756Z,96033.70
2018-06-08T14:31:21.119Z,96029.92
2018-06-08T14:33:48.414Z,96029.97
2018-06-08T14:36:15.668Z,96025.51
2018-06-08T14:38:43.117Z,96026.12
2018-06-08T14:41:10.332Z,96025.25
2018-06-08T14:43:37.689Z,96023.73
2018-06-08T14:46:05.048Z,96019.34
2018-06-08T14:48:32.405Z,96017.73
2018-06-08T14:50:59.673Z,96016.49
2018-06-08T14:53:26.915Z,96013.44
2018-06-08T14:55:54.196Z,96011.31
2018-06-08T14:58:21.876Z,96009.50
2018-06-08T15:00:49.211Z,96005.27
2018-06-08T15:03:16.474Z,96002.06
2018-06-08T15:05:43.702Z,96006.98
2018-06-08T15:11:03.682Z,96002.83
2018-06-08T15:13:30.979Z,95998.10
2018-06-08T15:15:58.375Z,95992.63
2018-06-08T15:18:25.729Z,95993.20
2018-06-08T15:20:53.082Z,95989.63
2018-06-08T15:23:21.725Z,95989.73
2018-06-08T15:25:49.090Z,95904.38
2018-06-08T15:28:16.555Z,95993.00
2018-06-08T15:30:44.988Z,95985.42
2018-06-08T15:33:12.781Z,95978.34
2018-06-08T15:35:40.147Z,95983.10
2018-06-08T15:38:07.547Z,95986.59
2018-06-08T15:40:34.950Z,95991.56
2018-06-08T15:43:02.215Z,95998.06
2018-06-08T15:45:29.579Z,95991.11
2018-06-08T15:47:56.919Z,95991.38
2018-06-08T15:50:24.446Z,95990.16
2018-06-08T15:52:51.835Z,95985.84
2018-06-08T15:55:19.161Z,95978.12
2018-06-08T15:57:46.404Z,95967.39
2018-06-08T16:00:13.793Z,95965.58
2018-06-08T16:02:41.136Z,95963.75
2018-06-08T16:05:08.728Z,95960.13
2018-06-08T16:07:36.078Z,95954.59
2018-06-08T16:10:03.511Z,95940.92
2018-06-08T16:12:30.742Z,95955.23
2018-06-08T16:14:58.534Z,95951.24
2018-06-08T16:17:25.848Z,95958.80
2018-06-08T16:19:53.147Z,95956.56
2018-06-08T16:22:20.425Z,95964.95
2018-06-08T16:24:47.770Z,95962.21
2018-06-08T16:27:15.570Z,95964.43
2018-06-08T16:29:42.897Z,95972.72
2018-06-08T16:32:10.331Z,95969.28
2018-06-08T16:34:37.601Z,95975.81
2018-06-08T16:37:04.947Z,95984.01
2018-06-08T16:39:32.183Z,95985.60
2018-06-08T16:41:59.473Z,95990.05
2018-06-08T16:44:26.745Z,95989.40
2018-06-08T16:46:54.050Z,95998.46
2018-06-08T16:49:21.428Z,96005.57
2018-06-08T16:51:48.767Z,96012.48
2018-06-08T16:54:16.106Z,96006.83
2018-06-08T16:56:43.437Z,96009.45
2018-06-08T16:59:10.898Z,96011.62
2018-06-08T17:01:38.326Z,96014.73
2018-06-08T17:04:05.704Z,96012.73
2018-06-08T17:06:33.020Z,96021.83
2018-06-08T17:09:00.359Z,96020.62
2018-06-08T17:11:27.682Z,96022.14
2018-06-08T17:13:55.071Z,96017.08
2018-06-08T17:16:22.398Z,96009.75
2018-06-08T17:18:49.721Z,96001.04
2018-06-08T17:21:17.030Z,95998.58
2018-06-08T17:23:44.332Z,96000.47
2018-06-08T17:26:11.701Z,95986.52
2018-06-08T17:28:38.932Z,95976.40
2018-06-08T17:31:06.274Z,95963.45
2018-06-08T17:33:33.633Z,95962.09
2018-06-08T17:36:00.870Z,95961.89
2018-06-08T17:38:28.234Z,95975.00
2018-06-08T17:40:55.550Z,95986.93
2018-06-08T17:43:29.799Z,96004.56
2018-06-08T17:45:59.046Z,96025.33
2018-06-08T17:48:28.926Z,96081.76
2018-06-08T17:50:56.189Z,96108.58
2018-06-08T17:53:23.508Z,96097.91
2018-06-08T17:55:50.804Z,96109.58
2018-06-08T17:58:18.182Z,96105.73
2018-06-08T18:00:45.533Z,96105.73
2018-06-08T18:03:12.854Z,96110.03
2018-06-08T18:05:40.132Z,96119.08
2018-06-08T18:08:07.392Z,96132.34
2018-06-08T18:10:34.644Z,96135.94
2018-06-08T18:13:02.140Z,96154.58
2018-06-08T18:15:29.452Z,96163.20
2018-06-08T18:17:56.967Z,96159.03
2018-06-08T18:20:24.165Z,96164.72
2018-06-08T18:22:51.401Z,96168.70
2018-06-08T18:25:18.802Z,96163.82
2018-06-08T18:27:46.043Z,96159.37
2018-06-08T18:30:13.401Z,96166.44
2018-06-08T18:32:40.708Z,96156.78
2018-06-08T18:35:08.540Z,96121.60
2018-06-08T18:37:35.841Z,96148.50
2018-06-08T18:40:03.497Z,96153.15
2018-06-08T18:42:30.807Z,96150.49
2018-06-08T18:44:58.113Z,96145.22
2018-06-08T18:47:25.480Z,96148.69
2018-06-08T18:49:52.792Z,96148.20
2018-06-08T18:52:20.084Z,96159.91
2018-06-08T18:54:47.344Z,96169.36
2018-06-08T18:57:14.646Z,96167.52
2018-06-08T18:59:41.942Z,96171.64
2018-06-08T19:02:09.193Z,96175.56
2018-06-08T19:04:36.628Z,96165.31
2018-06-08T19:07:03.996Z,96152.48
2018-06-08T19:09:31.290Z,96138.40
2018-06-08T19:11:58.633Z,96123.35
2018-06-08T19:14:25.868Z,96118.91
2018-06-08T19:16:53.249Z,96120.72
2018-06-08T19:19:20.500Z,96127.33
2018-06-08T19:21:47.792Z,96138.61
2018-06-08T19:24:15.108Z,96140.91
2018-06-08T19:26:42.430Z,96143.36
2018-06-08T19:29:09.918Z,96130.80
2018-06-08T19:31:37.238Z,96130.68
2018-06-08T19:34:04.488Z,96125.05
2018-06-08T19:36:31.767Z,96130.34
2018-06-08T19:38:59.054Z,96129.52
2018-06-08T19:41:30.772Z,96125.49
2018-06-08T19:43:58.348Z,96138.72
2018-06-08T19:46:25.712Z,96136.59
2018-06-08T19:48:53.378Z,96129.34
2018-06-08T19:51:20.682Z,96130.36
2018-06-08T19:53:48.135Z,96127.53
2018-06-08T19:56:15.525Z,96128.69
2018-06-08T19:58:49.388Z,96126.53
2018-06-08T20:01:16.716Z,96133.65
2018-06-08T20:03:44.047Z,96145.05
2018-06-08T20:06:48.744Z,96140.60
2018-06-08T20:09:16.566Z,96142.91
2018-06-08T20:11:44.047Z,96152.48
2018-06-08T20:14:11.447Z,96154.30
2018-06-08T20:16:41.402Z,96161.07
2018-06-08T20:19:08.944Z,96154.80
2018-06-08T20:21:36.343Z,96153.31
2018-06-08T20:24:03.808Z,96161.08
2018-06-08T20:26:31.206Z,96162.09
2018-06-08T20:28:58.555Z,96158.75
2018-06-08T20:31:25.909Z,96160.42
2018-06-08T20:33:53.211Z,96160.72
2018-06-08T20:36:20.512Z,96144.21
2018-06-08T20:38:47.811Z,96143.02
2018-06-08T20:41:15.154Z,96140.22
2018-06-08T20:43:42.510Z,96135.23
2018-06-08T20:46:09.821Z,96135.27
2018-06-08T20:48:37.051Z,96129.98
2018-06-08T20:51:04.360Z,96136.61
2018-06-08T20:53:31.597Z,96138.30
2018-06-08T20:55:59.019Z,96140.92
2018-06-08T20:58:28.450Z,96145.05
2018-06-08T21:00:56.305Z,96131.64
2018-06-08T21:03:23.610Z,96132.16
2018-06-08T21:05:50.853Z,96136.63
2018-06-08T21:08:18.213Z,96141.58
2018-06-08T21:10:45.547Z,96147.87
2018-06-08T21:13:12.826Z,96142.88
2018-06-08T21:15:40.113Z,96142.39
2018-06-08T21:18:07.484Z,96133.97
2018-06-08T21:20:34.856Z,96140.09
2018-06-08T21:23:02.144Z,96145.70
2018-06-08T21:25:29.437Z,96148.69
2018-06-08T21:27:56.785Z,96147.20
2018-06-08T21:30:24.075Z,96140.87
2018-06-08T21:32:51.398Z,96144.20
2018-06-08T21:35:18.697Z,96150.83
2018-06-08T21:37:46.032Z,96146.81
2018-06-08T21:40:13.387Z,96148.14
2018-06-08T21:42:40.701Z,96152.64
2018-06-08T21:45:08.186Z,96150.48
2018-06-08T21:47:35.426Z,96158.92
2018-06-08T21:50:02.831Z,96156.30
2018-06-08T21:52:30.081Z,96162.74
2018-06-08T21:54:57.452Z,96164.22
2018-06-08T21:57:24.732Z,96164.38
2018-06-08T21:59:51.995Z,96154.14
2018-06-08T22:02:19.403Z,96149.34
2018-06-08T22:04:46.755Z,96140.91
2018-06-08T22:07:14.139Z,96135.13
2018-06-08T22:09:41.459Z,96130.16
2018-06-08T22:12:08.975Z,96128.69
2018-06-08T22:14:36.284Z,96132.34
2018-06-08T22:17:03.775Z,96131.34
2018-06-08T22:19:31.129Z,96128.67
2018-06-08T22:21:58.423Z,96115.78
2018-06-08T22:24:25.789Z,96116.77
2018-06-08T22:26:53.098Z,96119.07
2018-06-08T22:29:20.338Z,96119.42
2018-06-08T22:31:47.662Z,96117.12
2018-06-08T22:34:14.968Z,96121.75
2018-06-08T22:36:42.344Z,96116.78
2018-06-08T22:39:09.706Z,96119.44
2018-06-08T22:41:37.038Z,96116.31
2018-06-08T22:44:04.274Z,96107.52
2018-06-08T22:46:31.629Z,96113.64
2018-06-08T22:48:58.869Z,96114.95
2018-06-08T22:51:26.285Z,96118.72
2018-06-08T22:53:53.545Z,96122.06
2018-06-08T22:56:20.818Z,96121.89
2018-06-08T22:58:48.157Z,96116.63
2018-06-08T23:01:15.541Z,96118.11
2018-06-08T23:03:42.822Z,96116.78
2018-06-08T23:06:10.163Z,96119.09
2018-06-08T23:08:37.372Z,96119.57
2018-06-08T23:11:04.624Z,96120.25
2018-06-08T23:13:32.023Z,96120.41
2018-06-08T23:15:59.228Z,96095.96
2018-06-08T23:18:26.520Z,96116.80
2018-06-08T23:20:53.882Z,96114.45
2018-06-08T23:23:21.271Z,96115.11
2018-06-08T23:25:48.534Z,96112.47
2018-06-08T23:31:11.606Z,96113.94
2018-06-08T23:33:38.966Z,96118.23
2018-06-08T23:36:06.380Z,96117.55
2018-06-08T23:38:33.687Z,96115.07
2018-06-08T23:41:07.089Z,95646.91
2018-06-08T23:43:34.372Z,96091.76
2018-06-08T23:46:01.620Z,96116.72
2018-06-08T23:48:28.942Z,96108.78
2018-06-08T23:50:56.223Z,96110.59
2018-06-08T23:53:23.494Z,96102.81
2018-06-08T23:55:50.818Z,96100.48
2018-06-08T23:58:18.055Z,96106.11
